sensor_id;sensor_type;location;lat;lon;timestamp;temperature;humidity
9103;DHT22;4587;51.434;6.788;2024-02-21T00:01:22;10.10;99.90
9103;DHT22;4587;51.434;6.788;2024-02-21T00:03:48;10.00;99.90
9103;DHT22;4587;51.434;6.788;2024-02-21T00:06:13;10.00;99.90
9103;DHT22;4587;51.434;6.788;2024-02-21T00:08:39;10.00;99.90
9103;DHT22;4587;51.434;6.788;2024-02-21T00:11:05;10.00;99.90
9103;DHT22;4587;51.434;6.788;2024-02-21T00:13:30;10.00;99.90
9103;DHT22;4587;51.434;6.788;2024-02-21T00:15:56;10.00;99.90
9103;DHT22;4587;51.434;6.788;2024-02-21T00:18:21;10.00;99.90
9103;DHT22;4587;51.434;6.788;2024-02-21T00:20:47;10.00;99.90
9103;DHT22;4587;51.434;6.788;2024-02-21T00:23:13;10.00;99.90
9103;DHT22;4587;51.434;6.788;2024-02-21T00:25:38;10.00;99.90
9103;DHT22;4587;51.434;6.788;2024-02-21T00:28:04;10.00;99.90
9103;DHT22;4587;51.434;6.788;2024-02-21T00:30:31;10.00;99.90
9103;DHT22;4587;51.434;6.788;2024-02-21T00:32:57;10.00;99.90
9103;DHT22;4587;51.434;6.788;2024-02-21T00:35:22;10.00;99.90
9103;DHT22;4587;51.434;6.788;2024-02-21T00:37:48;10.00;99.90
9103;DHT22;4587;51.434;6.788;2024-02-21T00:40:13;10.00;99.90
9103;DHT22;4587;51.434;6.788;2024-02-21T00:42:45;10.00;99.90
9103;DHT22;4587;51.434;6.788;2024-02-21T00:45:11;10.10;99.90
9103;DHT22;4587;51.434;6.788;2024-02-21T00:47:36;10.10;99.90
9103;DHT22;4587;51.434;6.788;2024-02-21T00:50:02;10.10;99.90
9103;DHT22;4587;51.434;6.788;2024-02-21T00:52:28;10.10;99.90
9103;DHT22;4587;51.434;6.788;2024-02-21T00:54:53;10.10;99.90
9103;DHT22;4587;51.434;6.788;2024-02-21T00:57:19;10.20;99.90
9103;DHT22;4587;51.434;6.788;2024-02-21T00:59:44;10.20;99.90
9103;DHT22;4587;51.434;6.788;2024-02-21T01:02:10;10.20;99.90
9103;DHT22;4587;51.434;6.788;2024-02-21T01:04:35;10.10;99.90
9103;DHT22;4587;51.434;6.788;2024-02-21T01:07:01;10.10;99.90
9103;DHT22;4587;51.434;6.788;2024-02-21T01:09:27;10.10;99.90
9103;DHT22;4587;51.434;6.788;2024-02-21T01:11:53;10.20;99.90
9103;DHT22;4587;51.434;6.788;2024-02-21T01:14:18;10.10;99.90
9103;DHT22;4587;51.434;6.788;2024-02-21T01:16:44;10.20;99.90
9103;DHT22;4587;51.434;6.788;2024-02-21T01:19:09;10.20;99.90
9103;DHT22;4587;51.434;6.788;2024-02-21T01:21:35;10.20;99.90
9103;DHT22;4587;51.434;6.788;2024-02-21T01:24:00;10.20;99.90
9103;DHT22;4587;51.434;6.788;2024-02-21T01:26:26;10.20;99.90
9103;DHT22;4587;51.434;6.788;2024-02-21T01:28:51;10.20;99.90
9103;DHT22;4587;51.434;6.788;2024-02-21T01:31:17;10.20;99.90
9103;DHT22;4587;51.434;6.788;2024-02-21T01:33:43;10.10;99.90
9103;DHT22;4587;51.434;6.788;2024-02-21T01:36:08;10.10;99.90
9103;DHT22;4587;51.434;6.788;2024-02-21T01:38:34;10.10;99.90
9103;DHT22;4587;51.434;6.788;2024-02-21T01:41:00;10.20;99.90
9103;DHT22;4587;51.434;6.788;2024-02-21T01:43:25;10.10;99.90
9103;DHT22;4587;51.434;6.788;2024-02-21T01:45:55;10.10;99.90
9103;DHT22;4587;51.434;6.788;2024-02-21T01:48:24;10.10;99.90
9103;DHT22;4587;51.434;6.788;2024-02-21T01:50:51;10.10;99.90
9103;DHT22;4587;51.434;6.788;2024-02-21T01:53:29;10.20;99.90
9103;DHT22;4587;51.434;6.788;2024-02-21T01:55:55;10.20;99.90
9103;DHT22;4587;51.434;6.788;2024-02-21T01:58:22;10.20;99.90
9103;DHT22;4587;51.434;6.788;2024-02-21T02:00:48;10.30;99.90
9103;DHT22;4587;51.434;6.788;2024-02-21T02:03:14;10.20;99.90
9103;DHT22;4587;51.434;6.788;2024-02-21T02:05:43;10.10;99.90
9103;DHT22;4587;51.434;6.788;2024-02-21T02:08:08;10.10;99.90
9103;DHT22;4587;51.434;6.788;2024-02-21T02:10:34;10.00;99.90
9103;DHT22;4587;51.434;6.788;2024-02-21T02:13:00;10.10;99.90
9103;DHT22;4587;51.434;6.788;2024-02-21T02:15:25;10.00;99.90
9103;DHT22;4587;51.434;6.788;2024-02-21T02:17:51;10.00;99.90
9103;DHT22;4587;51.434;6.788;2024-02-21T02:20:17;10.00;99.90
9103;DHT22;4587;51.434;6.788;2024-02-21T02:22:43;10.00;99.90
9103;DHT22;4587;51.434;6.788;2024-02-21T02:25:10;9.90;99.90
9103;DHT22;4587;51.434;6.788;2024-02-21T02:27:42;9.90;99.90
9103;DHT22;4587;51.434;6.788;2024-02-21T02:30:10;10.00;99.90
9103;DHT22;4587;51.434;6.788;2024-02-21T02:32:36;9.90;99.90
9103;DHT22;4587;51.434;6.788;2024-02-21T02:35:02;9.90;99.90
9103;DHT22;4587;51.434;6.788;2024-02-21T02:37:27;9.80;99.90
9103;DHT22;4587;51.434;6.788;2024-02-21T02:39:53;9.70;99.90
9103;DHT22;4587;51.434;6.788;2024-02-21T02:42:18;9.60;99.90
9103;DHT22;4587;51.434;6.788;2024-02-21T02:44:44;9.60;99.90
9103;DHT22;4587;51.434;6.788;2024-02-21T02:47:09;9.60;99.90
9103;DHT22;4587;51.434;6.788;2024-02-21T02:49:35;9.70;99.90
9103;DHT22;4587;51.434;6.788;2024-02-21T02:52:00;9.70;99.90
9103;DHT22;4587;51.434;6.788;2024-02-21T02:54:26;9.80;99.90
9103;DHT22;4587;51.434;6.788;2024-02-21T02:56:51;9.80;99.90
9103;DHT22;4587;51.434;6.788;2024-02-21T02:59:17;9.80;99.90
9103;DHT22;4587;51.434;6.788;2024-02-21T03:01:42;9.80;99.90
9103;DHT22;4587;51.434;6.788;2024-02-21T03:04:08;9.80;99.90
9103;DHT22;4587;51.434;6.788;2024-02-21T03:06:33;9.70;99.90
9103;DHT22;4587;51.434;6.788;2024-02-21T03:08:59;9.70;99.90
9103;DHT22;4587;51.434;6.788;2024-02-21T03:11:25;9.70;99.90
9103;DHT22;4587;51.434;6.788;2024-02-21T03:13:55;9.60;99.90
9103;DHT22;4587;51.434;6.788;2024-02-21T03:16:22;9.60;99.90
9103;DHT22;4587;51.434;6.788;2024-02-21T03:18:47;9.60;99.90
9103;DHT22;4587;51.434;6.788;2024-02-21T03:21:13;9.60;99.90
9103;DHT22;4587;51.434;6.788;2024-02-21T03:23:39;9.60;99.90
9103;DHT22;4587;51.434;6.788;2024-02-21T03:26:04;9.60;99.90
9103;DHT22;4587;51.434;6.788;2024-02-21T03:28:30;9.60;99.90
9103;DHT22;4587;51.434;6.788;2024-02-21T03:30:55;9.60;99.90
9103;DHT22;4587;51.434;6.788;2024-02-21T03:33:21;9.70;99.90
9103;DHT22;4587;51.434;6.788;2024-02-21T03:35:48;9.70;99.90
9103;DHT22;4587;51.434;6.788;2024-02-21T03:38:14;9.70;99.90
9103;DHT22;4587;51.434;6.788;2024-02-21T03:40:40;9.70;99.90
9103;DHT22;4587;51.434;6.788;2024-02-21T03:43:05;9.70;99.90
9103;DHT22;4587;51.434;6.788;2024-02-21T03:45:31;9.60;99.90
9103;DHT22;4587;51.434;6.788;2024-02-21T03:47:56;9.70;99.90
9103;DHT22;4587;51.434;6.788;2024-02-21T03:50:22;9.60;99.90
9103;DHT22;4587;51.434;6.788;2024-02-21T03:52:47;9.60;99.90
9103;DHT22;4587;51.434;6.788;2024-02-21T03:55:13;9.70;99.90
9103;DHT22;4587;51.434;6.788;2024-02-21T03:57:38;9.60;99.90
9103;DHT22;4587;51.434;6.788;2024-02-21T04:00:05;9.60;99.90
9103;DHT22;4587;51.434;6.788;2024-02-21T04:02:31;9.70;99.90
9103;DHT22;4587;51.434;6.788;2024-02-21T04:04:56;9.70;99.90
9103;DHT22;4587;51.434;6.788;2024-02-21T04:07:22;9.70;99.90
9103;DHT22;4587;51.434;6.788;2024-02-21T04:09:47;9.70;99.90
9103;DHT22;4587;51.434;6.788;2024-02-21T04:12:13;9.70;99.90
9103;DHT22;4587;51.434;6.788;2024-02-21T04:14:38;9.70;99.90
9103;DHT22;4587;51.434;6.788;2024-02-21T04:17:05;9.70;99.90
9103;DHT22;4587;51.434;6.788;2024-02-21T04:19:31;9.70;99.90
9103;DHT22;4587;51.434;6.788;2024-02-21T04:21:56;9.70;99.90
9103;DHT22;4587;51.434;6.788;2024-02-21T04:24:22;9.80;99.90
9103;DHT22;4587;51.434;6.788;2024-02-21T04:26:47;9.80;99.90
9103;DHT22;4587;51.434;6.788;2024-02-21T04:29:13;9.80;99.90
9103;DHT22;4587;51.434;6.788;2024-02-21T04:31:38;9.80;99.90
9103;DHT22;4587;51.434;6.788;2024-02-21T04:34:06;9.80;99.90
9103;DHT22;4587;51.434;6.788;2024-02-21T04:36:31;9.90;99.90
9103;DHT22;4587;51.434;6.788;2024-02-21T04:38:58;9.80;99.90
9103;DHT22;4587;51.434;6.788;2024-02-21T04:41:24;9.80;99.90
9103;DHT22;4587;51.434;6.788;2024-02-21T04:43:50;9.90;99.90
9103;DHT22;4587;51.434;6.788;2024-02-21T04:46:15;9.90;99.90
9103;DHT22;4587;51.434;6.788;2024-02-21T04:48:41;9.90;99.90
9103;DHT22;4587;51.434;6.788;2024-02-21T04:51:06;9.80;99.90
9103;DHT22;4587;51.434;6.788;2024-02-21T04:53:32;9.80;99.90
9103;DHT22;4587;51.434;6.788;2024-02-21T04:55:57;9.90;99.90
9103;DHT22;4587;51.434;6.788;2024-02-21T04:58:23;9.90;99.90
9103;DHT22;4587;51.434;6.788;2024-02-21T05:00:49;9.90;99.90
9103;DHT22;4587;51.434;6.788;2024-02-21T05:03:14;9.90;99.90
9103;DHT22;4587;51.434;6.788;2024-02-21T05:05:40;9.90;99.90
9103;DHT22;4587;51.434;6.788;2024-02-21T05:08:05;9.90;99.90
9103;DHT22;4587;51.434;6.788;2024-02-21T05:10:31;9.80;99.90
9103;DHT22;4587;51.434;6.788;2024-02-21T05:12:57;9.70;99.90
9103;DHT22;4587;51.434;6.788;2024-02-21T05:15:23;9.70;99.90
9103;DHT22;4587;51.434;6.788;2024-02-21T05:17:49;9.70;99.90
9103;DHT22;4587;51.434;6.788;2024-02-21T05:20:14;9.80;99.90
9103;DHT22;4587;51.434;6.788;2024-02-21T05:22:40;9.70;99.90
9103;DHT22;4587;51.434;6.788;2024-02-21T05:25:06;9.70;99.90
9103;DHT22;4587;51.434;6.788;2024-02-21T05:27:32;9.70;99.90
9103;DHT22;4587;51.434;6.788;2024-02-21T05:29:57;9.70;99.90
9103;DHT22;4587;51.434;6.788;2024-02-21T05:32:23;9.70;99.90
9103;DHT22;4587;51.434;6.788;2024-02-21T05:34:50;9.70;99.90
9103;DHT22;4587;51.434;6.788;2024-02-21T05:37:16;9.70;99.90
9103;DHT22;4587;51.434;6.788;2024-02-21T05:39:41;9.70;99.90
9103;DHT22;4587;51.434;6.788;2024-02-21T05:42:07;9.70;99.90
9103;DHT22;4587;51.434;6.788;2024-02-21T05:44:32;9.80;99.90
9103;DHT22;4587;51.434;6.788;2024-02-21T05:46:58;9.90;99.90
9103;DHT22;4587;51.434;6.788;2024-02-21T05:49:23;9.90;99.90
9103;DHT22;4587;51.434;6.788;2024-02-21T05:51:49;9.80;99.90
9103;DHT22;4587;51.434;6.788;2024-02-21T05:54:15;9.80;99.90
9103;DHT22;4587;51.434;6.788;2024-02-21T05:56:44;9.70;99.90
9103;DHT22;4587;51.434;6.788;2024-02-21T05:59:10;9.80;99.90
9103;DHT22;4587;51.434;6.788;2024-02-21T06:01:36;9.70;99.90
9103;DHT22;4587;51.434;6.788;2024-02-21T06:04:01;9.70;99.90
9103;DHT22;4587;51.434;6.788;2024-02-21T06:06:27;9.70;99.90
9103;DHT22;4587;51.434;6.788;2024-02-21T06:08:52;9.70;99.90
9103;DHT22;4587;51.434;6.788;2024-02-21T06:11:18;9.80;99.90
9103;DHT22;4587;51.434;6.788;2024-02-21T06:13:43;9.70;99.90
9103;DHT22;4587;51.434;6.788;2024-02-21T06:16:09;9.80;99.90
9103;DHT22;4587;51.434;6.788;2024-02-21T06:18:36;9.80;99.90
9103;DHT22;4587;51.434;6.788;2024-02-21T06:21:03;9.70;99.90
9103;DHT22;4587;51.434;6.788;2024-02-21T06:23:28;9.80;99.90
9103;DHT22;4587;51.434;6.788;2024-02-21T06:25:54;9.80;99.90
9103;DHT22;4587;51.434;6.788;2024-02-21T06:28:19;9.80;99.90
9103;DHT22;4587;51.434;6.788;2024-02-21T06:30:45;9.70;99.90
9103;DHT22;4587;51.434;6.788;2024-02-21T06:33:11;9.70;99.90
9103;DHT22;4587;51.434;6.788;2024-02-21T06:35:36;9.70;99.90
9103;DHT22;4587;51.434;6.788;2024-02-21T06:38:06;9.70;99.90
9103;DHT22;4587;51.434;6.788;2024-02-21T06:40:33;9.70;99.90
9103;DHT22;4587;51.434;6.788;2024-02-21T06:43:04;9.80;99.90
9103;DHT22;4587;51.434;6.788;2024-02-21T06:45:30;9.70;99.90
9103;DHT22;4587;51.434;6.788;2024-02-21T06:47:55;9.80;99.90
9103;DHT22;4587;51.434;6.788;2024-02-21T06:50:21;9.70;99.90
9103;DHT22;4587;51.434;6.788;2024-02-21T06:52:46;9.70;99.90
9103;DHT22;4587;51.434;6.788;2024-02-21T06:55:12;9.80;99.90
9103;DHT22;4587;51.434;6.788;2024-02-21T06:57:38;9.80;99.90
9103;DHT22;4587;51.434;6.788;2024-02-21T07:00:03;9.80;99.90
9103;DHT22;4587;51.434;6.788;2024-02-21T07:02:33;9.80;99.90
9103;DHT22;4587;51.434;6.788;2024-02-21T07:04:59;9.90;99.90
9103;DHT22;4587;51.434;6.788;2024-02-21T07:07:24;9.90;99.90
9103;DHT22;4587;51.434;6.788;2024-02-21T07:09:50;9.80;99.90
9103;DHT22;4587;51.434;6.788;2024-02-21T07:12:15;9.80;99.90
9103;DHT22;4587;51.434;6.788;2024-02-21T07:14:41;9.80;99.90
9103;DHT22;4587;51.434;6.788;2024-02-21T07:17:06;9.90;99.90
9103;DHT22;4587;51.434;6.788;2024-02-21T07:19:32;10.00;99.90
9103;DHT22;4587;51.434;6.788;2024-02-21T07:21:57;10.00;99.90
9103;DHT22;4587;51.434;6.788;2024-02-21T07:24:23;10.00;99.90
9103;DHT22;4587;51.434;6.788;2024-02-21T07:26:48;10.00;99.90
9103;DHT22;4587;51.434;6.788;2024-02-21T07:29:14;10.00;99.90
9103;DHT22;4587;51.434;6.788;2024-02-21T07:31:43;10.00;99.90
9103;DHT22;4587;51.434;6.788;2024-02-21T07:34:09;10.00;99.90
9103;DHT22;4587;51.434;6.788;2024-02-21T07:36:35;10.00;99.90
9103;DHT22;4587;51.434;6.788;2024-02-21T07:39:00;10.00;99.90
9103;DHT22;4587;51.434;6.788;2024-02-21T07:41:26;10.10;99.90
9103;DHT22;4587;51.434;6.788;2024-02-21T07:43:53;10.00;99.90
9103;DHT22;4587;51.434;6.788;2024-02-21T07:46:19;10.10;99.90
9103;DHT22;4587;51.434;6.788;2024-02-21T07:48:48;10.10;99.90
9103;DHT22;4587;51.434;6.788;2024-02-21T07:51:13;10.10;99.90
9103;DHT22;4587;51.434;6.788;2024-02-21T07:53:39;10.20;99.90
9103;DHT22;4587;51.434;6.788;2024-02-21T07:56:13;10.30;99.90
9103;DHT22;4587;51.434;6.788;2024-02-21T07:58:42;10.20;99.90
9103;DHT22;4587;51.434;6.788;2024-02-21T08:01:08;10.20;99.90
9103;DHT22;4587;51.434;6.788;2024-02-21T08:03:34;10.30;99.90
9103;DHT22;4587;51.434;6.788;2024-02-21T08:05:59;10.30;99.90
9103;DHT22;4587;51.434;6.788;2024-02-21T08:08:25;10.40;99.90
9103;DHT22;4587;51.434;6.788;2024-02-21T08:10:51;10.30;99.90
9103;DHT22;4587;51.434;6.788;2024-02-21T08:13:17;10.40;99.90
9103;DHT22;4587;51.434;6.788;2024-02-21T08:15:43;10.40;99.90
9103;DHT22;4587;51.434;6.788;2024-02-21T08:18:08;10.40;99.90
9103;DHT22;4587;51.434;6.788;2024-02-21T08:20:34;10.40;99.90
9103;DHT22;4587;51.434;6.788;2024-02-21T08:23:01;10.50;99.90
9103;DHT22;4587;51.434;6.788;2024-02-21T08:25:26;10.40;99.90
9103;DHT22;4587;51.434;6.788;2024-02-21T08:27:57;10.40;99.90
9103;DHT22;4587;51.434;6.788;2024-02-21T08:30:22;10.50;99.90
9103;DHT22;4587;51.434;6.788;2024-02-21T08:32:48;10.50;99.90
9103;DHT22;4587;51.434;6.788;2024-02-21T08:35:13;10.40;99.90
9103;DHT22;4587;51.434;6.788;2024-02-21T08:37:39;10.40;99.90
9103;DHT22;4587;51.434;6.788;2024-02-21T08:40:05;10.40;99.90
9103;DHT22;4587;51.434;6.788;2024-02-21T08:42:35;10.30;99.90
9103;DHT22;4587;51.434;6.788;2024-02-21T08:45:01;10.30;99.90
9103;DHT22;4587;51.434;6.788;2024-02-21T08:47:27;10.20;99.90
9103;DHT22;4587;51.434;6.788;2024-02-21T08:49:52;10.20;99.90
9103;DHT22;4587;51.434;6.788;2024-02-21T08:52:18;10.30;99.90
9103;DHT22;4587;51.434;6.788;2024-02-21T08:54:43;10.20;99.90
9103;DHT22;4587;51.434;6.788;2024-02-21T08:57:09;10.30;99.90
9103;DHT22;4587;51.434;6.788;2024-02-21T08:59:34;10.20;99.90
9103;DHT22;4587;51.434;6.788;2024-02-21T09:02:00;10.30;99.90
9103;DHT22;4587;51.434;6.788;2024-02-21T09:04:26;10.30;99.90
9103;DHT22;4587;51.434;6.788;2024-02-21T09:06:51;10.30;99.90
9103;DHT22;4587;51.434;6.788;2024-02-21T09:09:17;10.30;99.90
9103;DHT22;4587;51.434;6.788;2024-02-21T09:11:43;10.30;99.90
9103;DHT22;4587;51.434;6.788;2024-02-21T09:14:08;10.30;99.90
9103;DHT22;4587;51.434;6.788;2024-02-21T09:16:34;10.30;99.90
9103;DHT22;4587;51.434;6.788;2024-02-21T09:19:00;10.30;99.90
9103;DHT22;4587;51.434;6.788;2024-02-21T09:21:26;10.40;99.90
9103;DHT22;4587;51.434;6.788;2024-02-21T09:23:51;10.30;99.90
9103;DHT22;4587;51.434;6.788;2024-02-21T09:26:17;10.40;99.90
9103;DHT22;4587;51.434;6.788;2024-02-21T09:28:43;10.40;99.90
9103;DHT22;4587;51.434;6.788;2024-02-21T09:31:09;10.40;99.90
9103;DHT22;4587;51.434;6.788;2024-02-21T09:33:34;10.50;99.90
9103;DHT22;4587;51.434;6.788;2024-02-21T09:36:01;10.50;99.90
9103;DHT22;4587;51.434;6.788;2024-02-21T09:38:26;10.60;99.90
9103;DHT22;4587;51.434;6.788;2024-02-21T09:40:59;10.60;99.90
9103;DHT22;4587;51.434;6.788;2024-02-21T09:43:26;10.60;99.90
9103;DHT22;4587;51.434;6.788;2024-02-21T09:45:54;10.60;99.90
9103;DHT22;4587;51.434;6.788;2024-02-21T09:49:06;10.60;99.90
9103;DHT22;4587;51.434;6.788;2024-02-21T09:51:18;10.70;99.90
9103;DHT22;4587;51.434;6.788;2024-02-21T09:53:44;10.70;99.90
9103;DHT22;4587;51.434;6.788;2024-02-21T09:56:11;10.70;99.90
9103;DHT22;4587;51.434;6.788;2024-02-21T09:58:37;10.70;99.90
9103;DHT22;4587;51.434;6.788;2024-02-21T10:01:03;10.70;99.90
9103;DHT22;4587;51.434;6.788;2024-02-21T10:03:34;10.70;99.90
9103;DHT22;4587;51.434;6.788;2024-02-21T10:06:00;10.70;99.90
9103;DHT22;4587;51.434;6.788;2024-02-21T10:08:26;10.80;99.90
9103;DHT22;4587;51.434;6.788;2024-02-21T10:10:52;10.80;99.90
9103;DHT22;4587;51.434;6.788;2024-02-21T10:13:26;10.90;99.90
9103;DHT22;4587;51.434;6.788;2024-02-21T10:16:06;10.80;99.90
9103;DHT22;4587;51.434;6.788;2024-02-21T10:18:32;10.80;99.90
9103;DHT22;4587;51.434;6.788;2024-02-21T10:21:05;10.80;99.90
9103;DHT22;4587;51.434;6.788;2024-02-21T10:23:45;10.80;99.90
9103;DHT22;4587;51.434;6.788;2024-02-21T10:26:10;10.80;99.90
9103;DHT22;4587;51.434;6.788;2024-02-21T10:28:37;10.80;99.90
9103;DHT22;4587;51.434;6.788;2024-02-21T10:31:10;10.80;99.90
9103;DHT22;4587;51.434;6.788;2024-02-21T10:33:39;10.80;99.90
9103;DHT22;4587;51.434;6.788;2024-02-21T10:36:09;10.90;99.90
9103;DHT22;4587;51.434;6.788;2024-02-21T10:38:39;10.90;99.90
9103;DHT22;4587;51.434;6.788;2024-02-21T10:41:05;10.90;99.90
9103;DHT22;4587;51.434;6.788;2024-02-21T10:43:39;10.90;99.90
9103;DHT22;4587;51.434;6.788;2024-02-21T10:46:06;11.00;99.90
9103;DHT22;4587;51.434;6.788;2024-02-21T10:48:42;11.00;99.90
9103;DHT22;4587;51.434;6.788;2024-02-21T10:51:17;11.10;99.90
9103;DHT22;4587;51.434;6.788;2024-02-21T10:54:18;11.20;99.90
9103;DHT22;4587;51.434;6.788;2024-02-21T10:56:50;11.30;99.90
9103;DHT22;4587;51.434;6.788;2024-02-21T10:59:17;11.40;99.90
9103;DHT22;4587;51.434;6.788;2024-02-21T11:01:43;11.50;99.90
9103;DHT22;4587;51.434;6.788;2024-02-21T11:04:10;11.50;99.90
9103;DHT22;4587;51.434;6.788;2024-02-21T11:06:38;11.50;99.90
9103;DHT22;4587;51.434;6.788;2024-02-21T11:09:08;11.50;99.90
9103;DHT22;4587;51.434;6.788;2024-02-21T11:11:41;11.60;99.90
9103;DHT22;4587;51.434;6.788;2024-02-21T11:16:42;11.70;99.90
9103;DHT22;4587;51.434;6.788;2024-02-21T11:19:09;11.70;99.90
9103;DHT22;4587;51.434;6.788;2024-02-21T11:21:37;11.70;99.90
9103;DHT22;4587;51.434;6.788;2024-02-21T11:24:03;11.80;99.90
9103;DHT22;4587;51.434;6.788;2024-02-21T11:26:30;11.90;99.90
9103;DHT22;4587;51.434;6.788;2024-02-21T11:29:01;11.90;99.90
9103;DHT22;4587;51.434;6.788;2024-02-21T11:31:38;12.00;99.90
9103;DHT22;4587;51.434;6.788;2024-02-21T11:34:04;12.00;99.90
9103;DHT22;4587;51.434;6.788;2024-02-21T11:36:30;12.00;99.90
9103;DHT22;4587;51.434;6.788;2024-02-21T11:39:03;12.10;99.90
9103;DHT22;4587;51.434;6.788;2024-02-21T11:41:29;12.10;99.90
9103;DHT22;4587;51.434;6.788;2024-02-21T11:43:55;12.10;99.90
9103;DHT22;4587;51.434;6.788;2024-02-21T11:46:21;12.10;99.90
9103;DHT22;4587;51.434;6.788;2024-02-21T11:48:46;12.10;99.90
9103;DHT22;4587;51.434;6.788;2024-02-21T11:51:24;12.20;99.90
9103;DHT22;4587;51.434;6.788;2024-02-21T11:53:52;12.20;99.90
9103;DHT22;4587;51.434;6.788;2024-02-21T11:56:18;12.20;99.90
9103;DHT22;4587;51.434;6.788;2024-02-21T11:58:48;12.30;99.90
9103;DHT22;4587;51.434;6.788;2024-02-21T12:01:14;12.30;99.90
9103;DHT22;4587;51.434;6.788;2024-02-21T12:03:40;12.30;99.90
9103;DHT22;4587;51.434;6.788;2024-02-21T12:06:07;12.40;99.90
9103;DHT22;4587;51.434;6.788;2024-02-21T12:08:45;12.40;99.90
9103;DHT22;4587;51.434;6.788;2024-02-21T12:11:21;12.40;99.90
9103;DHT22;4587;51.434;6.788;2024-02-21T12:14:00;12.40;99.90
9103;DHT22;4587;51.434;6.788;2024-02-21T12:16:27;12.40;99.90
9103;DHT22;4587;51.434;6.788;2024-02-21T12:18:54;12.40;99.90
9103;DHT22;4587;51.434;6.788;2024-02-21T12:21:19;12.40;99.90
9103;DHT22;4587;51.434;6.788;2024-02-21T12:23:48;12.30;99.90
9103;DHT22;4587;51.434;6.788;2024-02-21T12:26:14;12.30;99.90
9103;DHT22;4587;51.434;6.788;2024-02-21T12:28:39;12.40;99.90
9103;DHT22;4587;51.434;6.788;2024-02-21T12:31:05;12.40;99.90
9103;DHT22;4587;51.434;6.788;2024-02-21T12:33:31;12.40;99.90
9103;DHT22;4587;51.434;6.788;2024-02-21T12:35:56;12.40;99.90
9103;DHT22;4587;51.434;6.788;2024-02-21T12:38:22;12.50;99.90
9103;DHT22;4587;51.434;6.788;2024-02-21T12:40:47;12.50;99.90
9103;DHT22;4587;51.434;6.788;2024-02-21T12:43:13;12.60;99.90
9103;DHT22;4587;51.434;6.788;2024-02-21T12:45:38;12.70;99.90
9103;DHT22;4587;51.434;6.788;2024-02-21T12:48:04;12.80;99.90
9103;DHT22;4587;51.434;6.788;2024-02-21T12:50:30;12.90;99.90
9103;DHT22;4587;51.434;6.788;2024-02-21T12:52:57;13.00;99.90
9103;DHT22;4587;51.434;6.788;2024-02-21T12:55:23;13.00;99.90
9103;DHT22;4587;51.434;6.788;2024-02-21T12:57:49;13.10;99.90
9103;DHT22;4587;51.434;6.788;2024-02-21T13:00:15;13.10;99.90
9103;DHT22;4587;51.434;6.788;2024-02-21T13:02:40;13.20;99.90
9103;DHT22;4587;51.434;6.788;2024-02-21T13:05:06;13.20;99.90
9103;DHT22;4587;51.434;6.788;2024-02-21T13:07:33;13.20;99.90
9103;DHT22;4587;51.434;6.788;2024-02-21T13:09:58;13.20;99.90
9103;DHT22;4587;51.434;6.788;2024-02-21T13:12:24;13.20;99.90
9103;DHT22;4587;51.434;6.788;2024-02-21T13:14:51;13.20;99.90
9103;DHT22;4587;51.434;6.788;2024-02-21T13:17:17;13.20;99.90
9103;DHT22;4587;51.434;6.788;2024-02-21T13:19:42;13.20;99.90
9103;DHT22;4587;51.434;6.788;2024-02-21T13:22:08;13.20;99.90
9103;DHT22;4587;51.434;6.788;2024-02-21T13:24:34;13.30;99.90
9103;DHT22;4587;51.434;6.788;2024-02-21T13:26:59;13.30;99.90
9103;DHT22;4587;51.434;6.788;2024-02-21T13:29:25;13.30;99.90
9103;DHT22;4587;51.434;6.788;2024-02-21T13:31:50;13.20;99.90
9103;DHT22;4587;51.434;6.788;2024-02-21T13:34:16;13.30;99.90
9103;DHT22;4587;51.434;6.788;2024-02-21T13:36:43;13.30;99.90
9103;DHT22;4587;51.434;6.788;2024-02-21T13:39:08;13.20;99.90
9103;DHT22;4587;51.434;6.788;2024-02-21T13:41:36;13.20;99.90
9103;DHT22;4587;51.434;6.788;2024-02-21T13:44:02;13.20;99.90
9103;DHT22;4587;51.434;6.788;2024-02-21T13:46:28;13.10;99.90
9103;DHT22;4587;51.434;6.788;2024-02-21T13:49:02;13.00;99.90
9103;DHT22;4587;51.434;6.788;2024-02-21T13:51:30;13.00;99.90
9103;DHT22;4587;51.434;6.788;2024-02-21T13:53:56;13.00;99.90
9103;DHT22;4587;51.434;6.788;2024-02-21T13:56:22;13.00;99.90
9103;DHT22;4587;51.434;6.788;2024-02-21T13:58:47;13.00;99.90
9103;DHT22;4587;51.434;6.788;2024-02-21T14:01:13;13.10;99.90
9103;DHT22;4587;51.434;6.788;2024-02-21T14:03:38;13.10;99.90
9103;DHT22;4587;51.434;6.788;2024-02-21T14:06:04;13.00;99.90
9103;DHT22;4587;51.434;6.788;2024-02-21T14:08:30;13.00;99.90
9103;DHT22;4587;51.434;6.788;2024-02-21T14:10:56;12.90;99.90
9103;DHT22;4587;51.434;6.788;2024-02-21T14:13:24;12.90;99.90
9103;DHT22;4587;51.434;6.788;2024-02-21T14:15:50;12.90;99.90
9103;DHT22;4587;51.434;6.788;2024-02-21T14:18:15;12.90;99.90
9103;DHT22;4587;51.434;6.788;2024-02-21T14:20:42;13.00;99.90
9103;DHT22;4587;51.434;6.788;2024-02-21T14:23:08;13.00;99.90
9103;DHT22;4587;51.434;6.788;2024-02-21T14:25:33;13.10;99.90
9103;DHT22;4587;51.434;6.788;2024-02-21T14:27:59;13.10;99.90
9103;DHT22;4587;51.434;6.788;2024-02-21T14:30:26;13.20;99.90
9103;DHT22;4587;51.434;6.788;2024-02-21T14:32:51;13.10;99.90
9103;DHT22;4587;51.434;6.788;2024-02-21T14:35:17;13.20;99.90
9103;DHT22;4587;51.434;6.788;2024-02-21T14:37:43;13.20;99.90
9103;DHT22;4587;51.434;6.788;2024-02-21T14:40:09;13.20;99.90
9103;DHT22;4587;51.434;6.788;2024-02-21T14:42:34;13.10;99.90
9103;DHT22;4587;51.434;6.788;2024-02-21T14:45:00;13.00;99.90
9103;DHT22;4587;51.434;6.788;2024-02-21T14:47:32;13.00;99.90
9103;DHT22;4587;51.434;6.788;2024-02-21T14:49:58;12.90;99.90
9103;DHT22;4587;51.434;6.788;2024-02-21T14:52:24;13.00;99.90
9103;DHT22;4587;51.434;6.788;2024-02-21T14:54:53;12.90;99.90
9103;DHT22;4587;51.434;6.788;2024-02-21T14:57:18;12.90;99.90
9103;DHT22;4587;51.434;6.788;2024-02-21T14:59:45;12.90;99.90
9103;DHT22;4587;51.434;6.788;2024-02-21T15:02:11;12.80;99.90
9103;DHT22;4587;51.434;6.788;2024-02-21T15:04:37;12.70;99.90
9103;DHT22;4587;51.434;6.788;2024-02-21T15:07:02;12.70;99.90
9103;DHT22;4587;51.434;6.788;2024-02-21T15:09:28;12.70;99.90
9103;DHT22;4587;51.434;6.788;2024-02-21T15:11:54;12.70;99.90
9103;DHT22;4587;51.434;6.788;2024-02-21T15:14:19;12.70;99.90
9103;DHT22;4587;51.434;6.788;2024-02-21T15:16:47;12.60;99.90
9103;DHT22;4587;51.434;6.788;2024-02-21T15:19:13;12.50;99.90
9103;DHT22;4587;51.434;6.788;2024-02-21T15:21:38;12.60;99.90
9103;DHT22;4587;51.434;6.788;2024-02-21T15:24:04;12.60;99.90
9103;DHT22;4587;51.434;6.788;2024-02-21T15:26:30;12.50;99.90
9103;DHT22;4587;51.434;6.788;2024-02-21T15:28:56;12.60;99.90
9103;DHT22;4587;51.434;6.788;2024-02-21T15:31:24;12.50;99.90
9103;DHT22;4587;51.434;6.788;2024-02-21T15:33:51;12.50;99.90
9103;DHT22;4587;51.434;6.788;2024-02-21T15:36:17;12.40;99.90
9103;DHT22;4587;51.434;6.788;2024-02-21T15:38:43;12.40;99.90
9103;DHT22;4587;51.434;6.788;2024-02-21T15:41:12;12.40;99.90
9103;DHT22;4587;51.434;6.788;2024-02-21T15:43:39;12.40;99.90
9103;DHT22;4587;51.434;6.788;2024-02-21T15:46:05;12.30;99.90
9103;DHT22;4587;51.434;6.788;2024-02-21T15:48:31;12.40;99.90
9103;DHT22;4587;51.434;6.788;2024-02-21T15:51:00;12.30;99.90
9103;DHT22;4587;51.434;6.788;2024-02-21T15:53:25;12.30;99.90
9103;DHT22;4587;51.434;6.788;2024-02-21T15:55:51;12.30;99.90
9103;DHT22;4587;51.434;6.788;2024-02-21T15:58:16;12.30;99.90
9103;DHT22;4587;51.434;6.788;2024-02-21T16:00:44;12.30;99.90
9103;DHT22;4587;51.434;6.788;2024-02-21T16:03:10;12.20;99.90
9103;DHT22;4587;51.434;6.788;2024-02-21T16:05:35;12.20;99.90